Portada
METAR-TAF:

METAR-TAF

Aeropuertos :

Yakutsk, Rusia

Aeropuerto de Yakutsk

latitud: 62-01N, longitud: 129-43E, altitud: 103 m

Observación

El informe se hizo hace 26 minutos, a las 04:00 UTC
Viento 8 kt del sur-suroeste
Temperatura 5°C
Humedad 81%
Presión 1009 hPa
Visibilidad 10 km o más
Cielo cubierto a una altura de 2100 ft

METAR: UEEE 250400Z 21004MPS 9999 OVC021 05/02 Q1009 R23L/290155 NOSIG RMK QFE748

Hora: 13:26 (04:26 UTC)

Pronóstico

El informe se hizo hace 2 horas y 26 minutos, a las 02:00 UTC
Pronóstico válido del 25 a las 03 UTC al 26 a las 09 UTC
Viento 10 kt del suroeste con ráfagas de 19 kt
Visibilidad 10 km o más
Cielo nuboso a una altura de 700 ft
Cielo nuboso a una altura de 1500 ft, Cumulonimbus.
Cielo cubierto a una altura de 7000 ft
Temporalmente
del 25 a las 03 UTC al 25 a las 12 UTC
Visibilidad: 3200 m
chaparrones de lluvia

TAF: UEEE 250200Z 2503/2609 22005G10MPS 9999 BKN007 BKN015CB OVC070 TEMPO 2503/2512 3200 -SHRA

Observaciones y pronósticos meteorológicos de más de 4000 aeropuertos (mensajes METAR y TAF).

Los puntos amarillos y rojos representan las estaciones disponibles.

Ponga el ratón en el punto deseado para ver el nombre de la estación.

Haga clic para ver las observaciones y los pronósticos meteorológicos.

Para cambiar el mapa : haga clic en los botones verdes con una cruz de color negro para hacer un zoom, en el botón verde con un guión para alejar o en las flechas verdes para mapas adyacentes.


METAR-TAF: